sensor_id;sensor_type;location;lat;lon;timestamp;pressure;altitude;pressure_sealevel;temperature;humidity
7168;BME280;3625;51.762;14.320;2023-05-29T00:01:25;100984.22;;;10.77;75.27
7168;BME280;3625;51.762;14.320;2023-05-29T00:03:58;100983.44;;;10.69;75.51
7168;BME280;3625;51.762;14.320;2023-05-29T00:06:27;100972.16;;;10.56;79.80
7168;BME280;3625;51.762;14.320;2023-05-29T00:08:56;100988.72;;;10.72;82.79
7168;BME280;3625;51.762;14.320;2023-05-29T00:11:25;100994.03;;;10.71;82.80
7168;BME280;3625;51.762;14.320;2023-05-29T00:13:53;100995.00;;;10.64;81.17
7168;BME280;3625;51.762;14.320;2023-05-29T00:16:22;101002.13;;;10.57;81.54
7168;BME280;3625;51.762;14.320;2023-05-29T00:18:52;100996.06;;;10.49;81.13
7168;BME280;3625;51.762;14.320;2023-05-29T00:21:21;100999.69;;;10.43;80.87
7168;BME280;3625;51.762;14.320;2023-05-29T00:23:49;100992.63;;;10.44;82.22
7168;BME280;3625;51.762;14.320;2023-05-29T00:26:18;100997.09;;;10.39;80.73
7168;BME280;3625;51.762;14.320;2023-05-29T00:28:52;100996.25;;;10.35;80.09
7168;BME280;3625;51.762;14.320;2023-05-29T00:31:21;100999.03;;;10.26;79.71
7168;BME280;3625;51.762;14.320;2023-05-29T00:34:08;100998.22;;;10.15;79.50
7168;BME280;3625;51.762;14.320;2023-05-29T00:36:59;100989.34;;;10.24;81.63
7168;BME280;3625;51.762;14.320;2023-05-29T00:39:29;100993.66;;;10.32;82.92
7168;BME280;3625;51.762;14.320;2023-05-29T00:41:57;100990.09;;;10.33;82.68
7168;BME280;3625;51.762;14.320;2023-05-29T00:44:26;100995.41;;;10.33;85.02
7168;BME280;3625;51.762;14.320;2023-05-29T00:46:54;100998.06;;;10.32;84.46
7168;BME280;3625;51.762;14.320;2023-05-29T00:49:25;100966.50;;;10.16;85.24
7168;BME280;3625;51.762;14.320;2023-05-29T00:51:55;101001.56;;;10.35;85.71
7168;BME280;3625;51.762;14.320;2023-05-29T00:54:28;100990.03;;;10.39;85.80
7168;BME280;3625;51.762;14.320;2023-05-29T00:56:58;100982.03;;;10.44;84.90
7168;BME280;3625;51.762;14.320;2023-05-29T00:59:30;100995.16;;;10.53;83.65
7168;BME280;3625;51.762;14.320;2023-05-29T01:02:01;100990.78;;;10.49;84.62
7168;BME280;3625;51.762;14.320;2023-05-29T01:04:31;100989.97;;;10.45;83.87
7168;BME280;3625;51.762;14.320;2023-05-29T01:07:01;100989.09;;;10.45;84.28
7168;BME280;3625;51.762;14.320;2023-05-29T01:09:31;100979.38;;;10.45;83.92
7168;BME280;3625;51.762;14.320;2023-05-29T01:12:14;100995.13;;;10.54;84.08
7168;BME280;3625;51.762;14.320;2023-05-29T01:14:57;100989.00;;;10.51;84.07
7168;BME280;3625;51.762;14.320;2023-05-29T01:17:42;100993.53;;;10.41;83.31
7168;BME280;3625;51.762;14.320;2023-05-29T01:20:38;100944.47;;;10.16;85.53
7168;BME280;3625;51.762;14.320;2023-05-29T01:23:45;101003.91;;;10.56;85.73
7168;BME280;3625;51.762;14.320;2023-05-29T01:26:51;101004.78;;;10.57;84.93
7168;BME280;3625;51.762;14.320;2023-05-29T01:29:24;101006.59;;;10.53;85.79
7168;BME280;3625;51.762;14.320;2023-05-29T01:31:55;101005.75;;;10.51;86.07
7168;BME280;3625;51.762;14.320;2023-05-29T01:34:24;101008.50;;;10.44;85.58
7168;BME280;3625;51.762;14.320;2023-05-29T01:36:53;101004.13;;;10.40;87.24
7168;BME280;3625;51.762;14.320;2023-05-29T01:39:22;101005.00;;;10.42;87.73
7168;BME280;3625;51.762;14.320;2023-05-29T01:41:54;100998.03;;;10.36;87.86
7168;BME280;3625;51.762;14.320;2023-05-29T01:44:25;101002.47;;;10.33;88.76
7168;BME280;3625;51.762;14.320;2023-05-29T01:46:54;101007.72;;;10.37;89.34
7168;BME280;3625;51.762;14.320;2023-05-29T01:49:24;101009.41;;;10.41;89.36
7168;BME280;3625;51.762;14.320;2023-05-29T01:51:54;101009.47;;;10.37;88.80
7168;BME280;3625;51.762;14.320;2023-05-29T01:54:22;101000.69;;;10.33;90.23
7168;BME280;3625;51.762;14.320;2023-05-29T01:56:53;100970.09;;;10.11;90.16
7168;BME280;3625;51.762;14.320;2023-05-29T01:59:23;101004.31;;;10.25;90.50
7168;BME280;3625;51.762;14.320;2023-05-29T02:01:51;101006.19;;;10.12;88.97
7168;BME280;3625;51.762;14.320;2023-05-29T02:04:20;101001.97;;;9.97;88.86
7168;BME280;3625;51.762;14.320;2023-05-29T02:06:48;100958.38;;;9.54;88.06
7168;BME280;3625;51.762;14.320;2023-05-29T02:09:21;101011.09;;;9.66;87.83
7168;BME280;3625;51.762;14.320;2023-05-29T02:11:50;101006.78;;;9.57;87.83
7168;BME280;3625;51.762;14.320;2023-05-29T02:14:20;101012.97;;;9.52;87.86
7168;BME280;3625;51.762;14.320;2023-05-29T02:16:50;101007.69;;;9.53;88.16
7168;BME280;3625;51.762;14.320;2023-05-29T02:19:19;101008.56;;;9.52;87.83
7168;BME280;3625;51.762;14.320;2023-05-29T02:21:49;101004.28;;;9.42;87.29
7168;BME280;3625;51.762;14.320;2023-05-29T02:24:18;100983.31;;;9.22;87.74
7168;BME280;3625;51.762;14.320;2023-05-29T02:26:48;101002.69;;;9.24;87.69
7168;BME280;3625;51.762;14.320;2023-05-29T02:29:17;101006.28;;;9.16;87.83
7168;BME280;3625;51.762;14.320;2023-05-29T02:32:05;101000.16;;;9.07;87.96
7168;BME280;3625;51.762;14.320;2023-05-29T02:34:33;101004.56;;;9.05;88.17
7168;BME280;3625;51.762;14.320;2023-05-29T02:37:02;101007.19;;;9.08;88.47
7168;BME280;3625;51.762;14.320;2023-05-29T02:39:31;101008.94;;;9.09;88.31
7168;BME280;3625;51.762;14.320;2023-05-29T02:41:59;101010.69;;;9.11;88.92
7168;BME280;3625;51.762;14.320;2023-05-29T02:44:28;101008.94;;;9.09;88.61
7168;BME280;3625;51.762;14.320;2023-05-29T02:46:56;101008.97;;;9.03;88.38
7168;BME280;3625;51.762;14.320;2023-05-29T02:49:26;101009.03;;;8.94;88.23
7168;BME280;3625;51.762;14.320;2023-05-29T02:51:54;101009.09;;;8.85;88.32
7168;BME280;3625;51.762;14.320;2023-05-29T02:54:24;101013.50;;;8.85;89.06
7168;BME280;3625;51.762;14.320;2023-05-29T02:56:53;101024.06;;;8.86;88.67
7168;BME280;3625;51.762;14.320;2023-05-29T02:59:22;101018.78;;;8.83;88.98
7168;BME280;3625;51.762;14.320;2023-05-29T03:01:50;101027.56;;;8.84;88.82
7168;BME280;3625;51.762;14.320;2023-05-29T03:04:36;101022.34;;;8.79;88.64
7168;BME280;3625;51.762;14.320;2023-05-29T03:07:05;101025.00;;;8.75;88.79
7168;BME280;3625;51.762;14.320;2023-05-29T03:09:34;101032.94;;;8.72;88.71
7168;BME280;3625;51.762;14.320;2023-05-29T03:12:03;101036.47;;;8.70;89.00
7168;BME280;3625;51.762;14.320;2023-05-29T03:14:59;101033.81;;;8.69;88.77
7168;BME280;3625;51.762;14.320;2023-05-29T03:17:28;101028.56;;;8.69;89.03
7168;BME280;3625;51.762;14.320;2023-05-29T03:19:59;101032.06;;;8.68;88.93
7168;BME280;3625;51.762;14.320;2023-05-29T03:22:28;101028.56;;;8.67;88.93
7168;BME280;3625;51.762;14.320;2023-05-29T03:24:56;101021.50;;;8.71;89.28
7168;BME280;3625;51.762;14.320;2023-05-29T03:27:24;101024.09;;;8.74;88.88
7168;BME280;3625;51.762;14.320;2023-05-29T03:30:20;101025.88;;;8.77;88.96
7168;BME280;3625;51.762;14.320;2023-05-29T03:32:50;101025.84;;;8.80;89.24
7168;BME280;3625;51.762;14.320;2023-05-29T03:35:27;101033.72;;;8.86;88.83
7168;BME280;3625;51.762;14.320;2023-05-29T03:37:56;101018.81;;;8.80;88.93
7168;BME280;3625;51.762;14.320;2023-05-29T03:40:24;101031.91;;;8.91;88.78
7168;BME280;3625;51.762;14.320;2023-05-29T03:42:53;101035.44;;;8.93;88.70
7168;BME280;3625;51.762;14.320;2023-05-29T03:45:37;101037.19;;;8.98;88.61
7168;BME280;3625;51.762;14.320;2023-05-29T03:48:20;101033.63;;;9.04;88.33
7168;BME280;3625;51.762;14.320;2023-05-29T03:50:50;101042.34;;;9.11;88.37
7168;BME280;3625;51.762;14.320;2023-05-29T03:53:25;101043.19;;;9.19;88.09
7168;BME280;3625;51.762;14.320;2023-05-29T03:55:53;101042.22;;;9.27;88.29
7168;BME280;3625;51.762;14.320;2023-05-29T03:58:22;101043.97;;;9.33;88.35
7168;BME280;3625;51.762;14.320;2023-05-29T04:00:52;101041.28;;;9.40;88.45
7168;BME280;3625;51.762;14.320;2023-05-29T04:03:21;101039.44;;;9.50;89.05
7168;BME280;3625;51.762;14.320;2023-05-29T04:05:51;101003.44;;;9.37;88.32
7168;BME280;3625;51.762;14.320;2023-05-29T04:08:20;101054.22;;;9.69;88.33
7168;BME280;3625;51.762;14.320;2023-05-29T04:10:49;101046.25;;;9.77;88.28
7168;BME280;3625;51.762;14.320;2023-05-29T04:13:21;101055.84;;;9.86;88.38
7168;BME280;3625;51.762;14.320;2023-05-29T04:15:50;101059.28;;;9.94;88.23
7168;BME280;3625;51.762;14.320;2023-05-29T04:18:21;101057.44;;;10.00;88.42
7168;BME280;3625;51.762;14.320;2023-05-29T04:20:51;101055.59;;;10.08;87.85
7168;BME280;3625;51.762;14.320;2023-05-29T04:23:21;101054.63;;;10.17;88.00
7168;BME280;3625;51.762;14.320;2023-05-29T04:25:49;101049.25;;;10.26;88.06
7168;BME280;3625;51.762;14.320;2023-05-29T04:28:23;101051.81;;;10.35;87.92
7168;BME280;3625;51.762;14.320;2023-05-29T04:30:51;101044.72;;;10.37;88.46
7168;BME280;3625;51.762;14.320;2023-05-29T04:33:23;101056.00;;;10.53;88.23
7168;BME280;3625;51.762;14.320;2023-05-29T04:35:53;101063.81;;;10.64;88.34
7168;BME280;3625;51.762;14.320;2023-05-29T04:38:22;101062.81;;;10.72;88.08
7168;BME280;3625;51.762;14.320;2023-05-29T04:40:54;101068.00;;;10.80;88.10
7168;BME280;3625;51.762;14.320;2023-05-29T04:43:59;101062.50;;;10.95;88.70
7168;BME280;3625;51.762;14.320;2023-05-29T04:46:34;101063.16;;;11.09;89.49
7168;BME280;3625;51.762;14.320;2023-05-29T04:49:04;101074.47;;;11.20;90.27
7168;BME280;3625;51.762;14.320;2023-05-29T04:51:33;101078.69;;;11.33;91.79
7168;BME280;3625;51.762;14.320;2023-05-29T04:54:03;101087.34;;;11.43;91.19
7168;BME280;3625;51.762;14.320;2023-05-29T04:56:32;101046.19;;;11.24;91.75
7168;BME280;3625;51.762;14.320;2023-05-29T04:59:02;101079.25;;;11.52;91.90
7168;BME280;3625;51.762;14.320;2023-05-29T05:01:31;101077.38;;;11.60;92.33
7168;BME280;3625;51.762;14.320;2023-05-29T05:04:00;101077.28;;;11.66;92.00
7168;BME280;3625;51.762;14.320;2023-05-29T05:06:29;101062.34;;;11.61;91.88
7168;BME280;3625;51.762;14.320;2023-05-29T05:09:27;101078.72;;;11.87;92.53
7168;BME280;3625;51.762;14.320;2023-05-29T05:11:55;101074.00;;;12.03;93.86
7168;BME280;3625;51.762;14.320;2023-05-29T05:14:24;101086.13;;;12.18;92.80
7168;BME280;3625;51.762;14.320;2023-05-29T05:16:56;101086.59;;;12.38;92.84
7168;BME280;3625;51.762;14.320;2023-05-29T05:19:25;101052.06;;;12.39;91.97
7168;BME280;3625;51.762;14.320;2023-05-29T05:21:54;101091.88;;;12.82;91.91
7168;BME280;3625;51.762;14.320;2023-05-29T05:24:23;101083.44;;;13.05;90.74
7168;BME280;3625;51.762;14.320;2023-05-29T05:27:17;101055.00;;;13.09;89.57
7168;BME280;3625;51.762;14.320;2023-05-29T05:29:46;101073.66;;;13.46;89.32
7168;BME280;3625;51.762;14.320;2023-05-29T05:32:15;101087.72;;;13.85;88.29
7168;BME280;3625;51.762;14.320;2023-05-29T05:34:44;101088.13;;;14.04;85.78
7168;BME280;3625;51.762;14.320;2023-05-29T05:37:29;101092.97;;;14.22;85.18
7168;BME280;3625;51.762;14.320;2023-05-29T05:39:59;101089.13;;;14.32;84.92
7168;BME280;3625;51.762;14.320;2023-05-29T05:42:31;101090.19;;;14.59;80.82
7168;BME280;3625;51.762;14.320;2023-05-29T05:45:05;101097.09;;;14.66;78.45
7168;BME280;3625;51.762;14.320;2023-05-29T05:47:33;101093.53;;;14.65;77.97
7168;BME280;3625;51.762;14.320;2023-05-29T05:50:21;101096.09;;;14.70;78.76
7168;BME280;3625;51.762;14.320;2023-05-29T05:52:51;101090.47;;;14.79;78.85
7168;BME280;3625;51.762;14.320;2023-05-29T05:55:20;101103.50;;;14.88;79.25
7168;BME280;3625;51.762;14.320;2023-05-29T05:57:50;101107.78;;;14.95;77.17
7168;BME280;3625;51.762;14.320;2023-05-29T06:00:19;101090.38;;;14.82;77.76
7168;BME280;3625;51.762;14.320;2023-05-29T06:02:48;101099.13;;;14.87;78.23
7168;BME280;3625;51.762;14.320;2023-05-29T06:05:30;101086.66;;;14.88;78.21
7168;BME280;3625;51.762;14.320;2023-05-29T06:08:01;101112.72;;;15.07;77.84
7168;BME280;3625;51.762;14.320;2023-05-29T06:10:32;101048.03;;;14.73;77.33
7168;BME280;3625;51.762;14.320;2023-05-29T06:13:02;101112.53;;;15.14;76.34
7168;BME280;3625;51.762;14.320;2023-05-29T06:15:42;101076.28;;;15.08;75.31
7168;BME280;3625;51.762;14.320;2023-05-29T06:18:11;101108.25;;;15.37;75.45
7168;BME280;3625;51.762;14.320;2023-05-29T06:20:40;101110.66;;;15.45;75.56
7168;BME280;3625;51.762;14.320;2023-05-29T06:23:10;101116.00;;;15.45;74.38
7168;BME280;3625;51.762;14.320;2023-05-29T06:25:39;101112.75;;;15.35;73.53
7168;BME280;3625;51.762;14.320;2023-05-29T06:28:09;101120.69;;;15.37;74.60
7168;BME280;3625;51.762;14.320;2023-05-29T06:30:40;101093.41;;;15.29;74.33
7168;BME280;3625;51.762;14.320;2023-05-29T06:33:12;101128.97;;;15.57;74.39
7168;BME280;3625;51.762;14.320;2023-05-29T06:35:41;101125.94;;;15.68;72.95
7168;BME280;3625;51.762;14.320;2023-05-29T06:38:10;101134.53;;;15.77;73.75
7168;BME280;3625;51.762;14.320;2023-05-29T06:40:39;101138.25;;;15.73;72.21
7168;BME280;3625;51.762;14.320;2023-05-29T06:43:09;101115.31;;;15.66;73.18
7168;BME280;3625;51.762;14.320;2023-05-29T06:45:39;101109.56;;;15.80;72.95
7168;BME280;3625;51.762;14.320;2023-05-29T06:48:21;101143.59;;;16.00;72.39
7168;BME280;3625;51.762;14.320;2023-05-29T06:50:50;101148.72;;;16.06;72.64
7168;BME280;3625;51.762;14.320;2023-05-29T06:53:51;101129.06;;;16.08;72.75
7168;BME280;3625;51.762;14.320;2023-05-29T06:56:21;101148.09;;;16.24;71.96
7168;BME280;3625;51.762;14.320;2023-05-29T06:58:51;101151.13;;;16.38;72.22
7168;BME280;3625;51.762;14.320;2023-05-29T07:01:20;101150.81;;;16.47;71.61
7168;BME280;3625;51.762;14.320;2023-05-29T07:03:57;101149.53;;;16.59;71.10
7168;BME280;3625;51.762;14.320;2023-05-29T07:06:26;101150.19;;;16.66;70.22
7168;BME280;3625;51.762;14.320;2023-05-29T07:08:55;101135.03;;;16.66;69.51
7168;BME280;3625;51.762;14.320;2023-05-29T07:11:23;101158.41;;;16.84;68.54
7168;BME280;3625;51.762;14.320;2023-05-29T07:13:54;101159.94;;;16.91;68.00
7168;BME280;3625;51.762;14.320;2023-05-29T07:16:25;101156.19;;;16.95;68.44
7168;BME280;3625;51.762;14.320;2023-05-29T07:19:02;101157.50;;;17.09;68.52
7168;BME280;3625;51.762;14.320;2023-05-29T07:21:34;101124.59;;;17.07;65.66
7168;BME280;3625;51.762;14.320;2023-05-29T07:24:05;101160.88;;;17.37;65.01
7168;BME280;3625;51.762;14.320;2023-05-29T07:26:35;101145.91;;;17.31;64.14
7168;BME280;3625;51.762;14.320;2023-05-29T07:29:06;101149.03;;;17.43;64.10
7168;BME280;3625;51.762;14.320;2023-05-29T07:31:35;101160.75;;;17.63;62.49
7168;BME280;3625;51.762;14.320;2023-05-29T07:34:07;101084.44;;;17.30;61.38
7168;BME280;3625;51.762;14.320;2023-05-29T07:36:35;101162.03;;;17.75;60.62
7168;BME280;3625;51.762;14.320;2023-05-29T07:39:12;101163.34;;;17.87;58.36
7168;BME280;3625;51.762;14.320;2023-05-29T07:41:42;101142.19;;;17.81;57.29
7168;BME280;3625;51.762;14.320;2023-05-29T07:44:12;101151.28;;;17.98;57.59
7168;BME280;3625;51.762;14.320;2023-05-29T07:46:43;101140.63;;;17.97;56.44
7168;BME280;3625;51.762;14.320;2023-05-29T07:49:30;101142.81;;;18.07;56.84
7168;BME280;3625;51.762;14.320;2023-05-29T07:51:59;101180.56;;;18.23;53.79
7168;BME280;3625;51.762;14.320;2023-05-29T07:54:28;101158.06;;;18.07;54.34
7168;BME280;3625;51.762;14.320;2023-05-29T07:56:56;101184.44;;;18.36;54.94
7168;BME280;3625;51.762;14.320;2023-05-29T07:59:34;101186.34;;;18.55;52.37
7168;BME280;3625;51.762;14.320;2023-05-29T08:02:03;101163.31;;;18.51;52.95
7168;BME280;3625;51.762;14.320;2023-05-29T08:04:48;101192.69;;;18.74;51.77
7168;BME280;3625;51.762;14.320;2023-05-29T08:07:18;101188.78;;;18.81;51.58
7168;BME280;3625;51.762;14.320;2023-05-29T08:09:47;101191.13;;;18.89;51.41
7168;BME280;3625;51.762;14.320;2023-05-29T08:12:16;101150.66;;;18.74;51.49
7168;BME280;3625;51.762;14.320;2023-05-29T08:14:46;101198.41;;;19.05;49.57
7168;BME280;3625;51.762;14.320;2023-05-29T08:17:15;101202.06;;;18.84;49.67
7168;BME280;3625;51.762;14.320;2023-05-29T08:19:44;101203.72;;;18.87;50.71
7168;BME280;3625;51.762;14.320;2023-05-29T08:22:14;101198.16;;;18.91;49.88
7168;BME280;3625;51.762;14.320;2023-05-29T08:24:43;101188.66;;;19.03;49.78
7168;BME280;3625;51.762;14.320;2023-05-29T08:27:15;101189.88;;;19.16;50.34
7168;BME280;3625;51.762;14.320;2023-05-29T08:29:43;101159.25;;;19.20;49.74
7168;BME280;3625;51.762;14.320;2023-05-29T08:32:13;101203.25;;;19.36;48.10
7168;BME280;3625;51.762;14.320;2023-05-29T08:34:42;101207.78;;;19.54;48.37
7168;BME280;3625;51.762;14.320;2023-05-29T08:37:12;101180.38;;;19.46;47.34
7168;BME280;3625;51.762;14.320;2023-05-29T08:39:41;101201.38;;;19.57;47.42
7168;BME280;3625;51.762;14.320;2023-05-29T08:42:21;101201.09;;;19.63;47.13
7168;BME280;3625;51.762;14.320;2023-05-29T08:44:54;101155.44;;;19.44;47.57
7168;BME280;3625;51.762;14.320;2023-05-29T08:47:27;101194.06;;;19.61;46.82
7168;BME280;3625;51.762;14.320;2023-05-29T08:50:00;101192.81;;;19.68;47.00
7168;BME280;3625;51.762;14.320;2023-05-29T08:52:34;101169.03;;;19.60;45.98
7168;BME280;3625;51.762;14.320;2023-05-29T08:55:05;101198.63;;;19.77;45.93
7168;BME280;3625;51.762;14.320;2023-05-29T08:57:36;101171.47;;;19.65;45.80
7168;BME280;3625;51.762;14.320;2023-05-29T09:00:07;101166.84;;;19.68;45.72
7168;BME280;3625;51.762;14.320;2023-05-29T09:02:41;101196.44;;;19.85;46.14
7168;BME280;3625;51.762;14.320;2023-05-29T09:05:11;101190.28;;;20.01;44.61
7168;BME280;3625;51.762;14.320;2023-05-29T09:07:40;101183.09;;;20.01;44.71
7168;BME280;3625;51.762;14.320;2023-05-29T09:10:11;101169.81;;;19.98;44.23
7168;BME280;3625;51.762;14.320;2023-05-29T09:12:40;101194.13;;;20.14;44.57
7168;BME280;3625;51.762;14.320;2023-05-29T09:15:19;101184.72;;;20.22;44.45
7168;BME280;3625;51.762;14.320;2023-05-29T09:17:53;101178.56;;;20.20;44.38
7168;BME280;3625;51.762;14.320;2023-05-29T09:20:25;101196.09;;;20.27;43.61
7168;BME280;3625;51.762;14.320;2023-05-29T09:22:56;101196.69;;;20.34;43.64
7168;BME280;3625;51.762;14.320;2023-05-29T09:25:27;101198.22;;;20.40;43.13
7168;BME280;3625;51.762;14.320;2023-05-29T09:27:59;101200.66;;;20.44;43.18
7168;BME280;3625;51.762;14.320;2023-05-29T09:30:34;101198.03;;;20.60;41.88
7168;BME280;3625;51.762;14.320;2023-05-29T09:33:06;101196.75;;;20.67;41.02
7168;BME280;3625;51.762;14.320;2023-05-29T09:35:38;101201.78;;;20.75;41.31
7168;BME280;3625;51.762;14.320;2023-05-29T09:38:08;101205.63;;;20.69;40.11
7168;BME280;3625;51.762;14.320;2023-05-29T09:40:40;101210.72;;;20.75;39.82
7168;BME280;3625;51.762;14.320;2023-05-29T09:43:11;101208.16;;;20.72;39.98
7168;BME280;3625;51.762;14.320;2023-05-29T09:45:42;101198.97;;;20.76;39.90
7168;BME280;3625;51.762;14.320;2023-05-29T09:48:15;101199.06;;;20.92;39.80
7168;BME280;3625;51.762;14.320;2023-05-29T09:50:46;101202.25;;;21.16;38.82
7168;BME280;3625;51.762;14.320;2023-05-29T09:53:17;101204.94;;;21.16;38.10
7168;BME280;3625;51.762;14.320;2023-05-29T09:55:47;101203.94;;;21.18;38.60
7168;BME280;3625;51.762;14.320;2023-05-29T09:58:18;101188.78;;;21.16;39.08
7168;BME280;3625;51.762;14.320;2023-05-29T10:00:47;101197.56;;;21.19;39.52
7168;BME280;3625;51.762;14.320;2023-05-29T10:03:19;101190.50;;;21.18;38.65
7168;BME280;3625;51.762;14.320;2023-05-29T10:05:52;101127.78;;;20.83;38.62
7168;BME280;3625;51.762;14.320;2023-05-29T10:08:21;101196.31;;;21.26;37.88
7168;BME280;3625;51.762;14.320;2023-05-29T10:10:59;101171.47;;;21.04;37.72
7168;BME280;3625;51.762;14.320;2023-05-29T10:13:34;101205.78;;;21.33;37.16
7168;BME280;3625;51.762;14.320;2023-05-29T10:16:10;101194.88;;;21.68;37.44
7168;BME280;3625;51.762;14.320;2023-05-29T10:18:44;101151.84;;;21.98;37.10
7168;BME280;3625;51.762;14.320;2023-05-29T10:21:18;101199.19;;;22.63;36.57
7168;BME280;3625;51.762;14.320;2023-05-29T10:23:49;101204.72;;;22.76;35.60
7168;BME280;3625;51.762;14.320;2023-05-29T10:26:21;101187.50;;;22.33;36.04
7168;BME280;3625;51.762;14.320;2023-05-29T10:28:58;101206.28;;;22.04;37.16
7168;BME280;3625;51.762;14.320;2023-05-29T10:31:42;101192.16;;;22.15;36.97
7168;BME280;3625;51.762;14.320;2023-05-29T10:34:29;101117.56;;;22.15;35.98
7168;BME280;3625;51.762;14.320;2023-05-29T10:37:08;101199.84;;;23.11;35.90
7168;BME280;3625;51.762;14.320;2023-05-29T10:39:38;101182.00;;;23.37;35.79
7168;BME280;3625;51.762;14.320;2023-05-29T10:42:45;101209.69;;;23.54;34.74
7168;BME280;3625;51.762;14.320;2023-05-29T10:45:49;101211.88;;;23.48;34.39
7168;BME280;3625;51.762;14.320;2023-05-29T10:48:39;101211.31;;;23.43;33.42
7168;BME280;3625;51.762;14.320;2023-05-29T10:51:26;101201.09;;;23.48;33.73
7168;BME280;3625;51.762;14.320;2023-05-29T10:53:55;101192.03;;;23.63;34.07
7168;BME280;3625;51.762;14.320;2023-05-29T10:56:29;101082.22;;;23.48;33.09
7168;BME280;3625;51.762;14.320;2023-05-29T10:59:00;101190.66;;;24.38;32.36
7168;BME280;3625;51.762;14.320;2023-05-29T11:01:30;101204.38;;;23.53;33.23
7168;BME280;3625;51.762;14.320;2023-05-29T11:04:28;101189.44;;;23.05;34.67
7168;BME280;3625;51.762;14.320;2023-05-29T11:07:01;101160.78;;;23.02;35.08
7168;BME280;3625;51.762;14.320;2023-05-29T11:09:37;101189.66;;;23.85;33.49
7168;BME280;3625;51.762;14.320;2023-05-29T11:12:17;101164.00;;;24.32;32.82
7168;BME280;3625;51.762;14.320;2023-05-29T11:15:05;101153.69;;;24.89;32.11
7168;BME280;3625;51.762;14.320;2023-05-29T11:17:44;101186.56;;;24.45;32.70
7168;BME280;3625;51.762;14.320;2023-05-29T11:20:35;101155.69;;;24.35;32.26
7168;BME280;3625;51.762;14.320;2023-05-29T11:23:07;101179.88;;;24.24;32.80
7168;BME280;3625;51.762;14.320;2023-05-29T11:25:38;101184.81;;;24.57;32.67
7168;BME280;3625;51.762;14.320;2023-05-29T11:28:08;101189.31;;;24.31;32.13
7168;BME280;3625;51.762;14.320;2023-05-29T11:30:42;101156.81;;;23.64;33.52
7168;BME280;3625;51.762;14.320;2023-05-29T11:33:28;101033.91;;;23.16;32.68
7168;BME280;3625;51.762;14.320;2023-05-29T11:35:59;101179.66;;;24.00;33.04
7168;BME280;3625;51.762;14.320;2023-05-29T11:38:30;101173.31;;;24.14;32.13
7168;BME280;3625;51.762;14.320;2023-05-29T11:41:02;101153.50;;;23.74;32.43
7168;BME280;3625;51.762;14.320;2023-05-29T11:43:31;101189.31;;;23.77;32.92
7168;BME280;3625;51.762;14.320;2023-05-29T11:46:00;101088.47;;;23.21;32.96
7168;BME280;3625;51.762;14.320;2023-05-29T11:48:29;101183.69;;;23.80;33.46
7168;BME280;3625;51.762;14.320;2023-05-29T11:50:57;101185.28;;;23.27;33.98
7168;BME280;3625;51.762;14.320;2023-05-29T11:53:34;101173.91;;;22.94;34.76
7168;BME280;3625;51.762;14.320;2023-05-29T11:56:09;101118.50;;;22.58;34.56
7168;BME280;3625;51.762;14.320;2023-05-29T11:58:38;101176.94;;;23.73;33.35
7168;BME280;3625;51.762;14.320;2023-05-29T12:01:08;101132.41;;;24.05;32.36
7168;BME280;3625;51.762;14.320;2023-05-29T12:03:39;101136.16;;;23.90;32.92
7168;BME280;3625;51.762;14.320;2023-05-29T12:06:10;101172.59;;;24.12;32.46
7168;BME280;3625;51.762;14.320;2023-05-29T12:08:40;101171.50;;;23.87;32.41
7168;BME280;3625;51.762;14.320;2023-05-29T12:11:09;101165.69;;;23.66;33.14
7168;BME280;3625;51.762;14.320;2023-05-29T12:13:38;101161.47;;;24.68;32.29
7168;BME280;3625;51.762;14.320;2023-05-29T12:16:14;101162.75;;;25.26;31.08
7168;BME280;3625;51.762;14.320;2023-05-29T12:18:47;101159.88;;;25.16;31.31
7168;BME280;3625;51.762;14.320;2023-05-29T12:21:16;101169.19;;;25.12;31.27
7168;BME280;3625;51.762;14.320;2023-05-29T12:23:46;101156.31;;;25.16;30.74
7168;BME280;3625;51.762;14.320;2023-05-29T12:26:21;101152.16;;;25.23;30.67
7168;BME280;3625;51.762;14.320;2023-05-29T12:28:50;101167.13;;;25.16;30.34
7168;BME280;3625;51.762;14.320;2023-05-29T12:31:29;101118.78;;;24.34;31.10
7168;BME280;3625;51.762;14.320;2023-05-29T12:34:07;101156.91;;;24.56;31.59
7168;BME280;3625;51.762;14.320;2023-05-29T12:36:36;101148.38;;;24.88;31.36
7168;BME280;3625;51.762;14.320;2023-05-29T12:39:09;101145.16;;;25.08;30.92
7168;BME280;3625;51.762;14.320;2023-05-29T12:41:39;101142.59;;;24.29;32.44
7168;BME280;3625;51.762;14.320;2023-05-29T12:44:08;101140.69;;;24.69;31.09
7168;BME280;3625;51.762;14.320;2023-05-29T12:46:39;101145.09;;;24.57;31.50
7168;BME280;3625;51.762;14.320;2023-05-29T12:49:13;101146.84;;;24.58;30.60
7168;BME280;3625;51.762;14.320;2023-05-29T12:51:44;101148.50;;;24.73;30.63
7168;BME280;3625;51.762;14.320;2023-05-29T12:54:16;101118.59;;;24.62;31.23
7168;BME280;3625;51.762;14.320;2023-05-29T12:56:45;101137.81;;;24.32;32.20
7168;BME280;3625;51.762;14.320;2023-05-29T12:59:13;101144.16;;;24.19;32.38
7168;BME280;3625;51.762;14.320;2023-05-29T13:01:42;101143.75;;;23.71;33.22
7168;BME280;3625;51.762;14.320;2023-05-29T13:04:11;101136.59;;;23.97;32.77
7168;BME280;3625;51.762;14.320;2023-05-29T13:06:40;101137.09;;;24.16;32.53
7168;BME280;3625;51.762;14.320;2023-05-29T13:09:09;101133.06;;;24.49;32.83
7168;BME280;3625;51.762;14.320;2023-05-29T13:11:40;101145.78;;;24.73;32.02
7168;BME280;3625;51.762;14.320;2023-05-29T13:14:08;101121.28;;;24.37;32.41
7168;BME280;3625;51.762;14.320;2023-05-29T13:16:37;101127.03;;;24.70;32.18
7168;BME280;3625;51.762;14.320;2023-05-29T13:19:08;101125.09;;;24.72;32.16
7168;BME280;3625;51.762;14.320;2023-05-29T13:21:38;101122.22;;;23.96;33.36
7168;BME280;3625;51.762;14.320;2023-05-29T13:24:07;101088.22;;;23.39;33.64
7168;BME280;3625;51.762;14.320;2023-05-29T13:26:35;101120.59;;;23.94;33.34
7168;BME280;3625;51.762;14.320;2023-05-29T13:29:05;101124.19;;;24.34;32.15
7168;BME280;3625;51.762;14.320;2023-05-29T13:31:34;101031.81;;;23.88;31.42